Time;durP1;ratioP1;P1;durP2;ratioP2;P2;SDS_P1;SDS_P2;PMS_P1;PMS_P2;Temp;Humidity;BMP_temperature;BMP_pressure;BME280_temperature;BME280_humidity;BME280_pressure;Samples;Min_cycle;Max_cycle;Signal;HPM_P1;HPM_P2
2022/06/20 00:02:29;;;;;;;12.60;6.65;;;14.40;99.90;;;;;;5016288;28;20036;-69
2022/06/20 00:04:59;;;;;;;11.88;7.40;;;14.30;99.90;;;;;;5023930;28;20049;-68
2022/06/20 00:07:26;;;;;;;13.73;6.72;;;14.20;99.90;;;;;;5021513;28;20029;-68
2022/06/20 00:09:53;;;;;;;18.92;7.68;;;14.30;99.90;;;;;;5023684;28;20017;-68
2022/06/20 00:12:25;;;;;;;14.15;6.60;;;14.20;99.90;;;;;;5013460;28;20152;-68
2022/06/20 00:15:00;;;;;;;13.77;8.07;;;14.20;99.90;;;;;;5021943;28;20100;-69
2022/06/20 00:17:27;;;;;;;10.82;6.65;;;14.30;99.90;;;;;;5032865;28;20075;-69
2022/06/20 00:19:55;;;;;;;12.75;6.95;;;14.40;99.90;;;;;;5033870;28;20021;-69
2022/06/20 00:22:22;;;;;;;14.65;6.88;;;14.60;99.90;;;;;;5029025;28;20018;-69
2022/06/20 00:24:50;;;;;;;15.75;6.70;;;14.50;99.90;;;;;;5026656;28;20075;-69
2022/06/20 00:27:17;;;;;;;15.10;6.93;;;14.50;99.90;;;;;;5023301;28;20019;-69
2022/06/20 00:29:45;;;;;;;14.55;5.50;;;14.70;99.90;;;;;;5025971;28;20108;-68
2022/06/20 00:32:12;;;;;;;11.25;4.53;;;14.70;99.90;;;;;;5016673;28;20046;-69
2022/06/20 00:34:40;;;;;;;10.85;5.40;;;14.80;99.90;;;;;;5012738;28;20464;-68
2022/06/20 00:37:15;;;;;;;10.55;5.30;;;15.00;99.90;;;;;;5013491;28;20489;-68
2022/06/20 00:39:43;;;;;;;10.70;4.68;;;15.00;99.90;;;;;;5028335;28;20083;-68
2022/06/20 00:42:11;;;;;;;15.98;4.80;;;15.10;99.90;;;;;;5013977;28;20037;-69
2022/06/20 00:44:50;;;;;;;11.93;4.78;;;15.20;99.90;;;;;;5027088;28;20094;-66
2022/06/20 00:47:21;;;;;;;8.48;4.13;;;15.30;99.90;;;;;;5014852;28;20030;-68
2022/06/20 00:50:07;;;;;;;11.27;3.90;;;15.50;99.90;;;;;;5028533;28;20048;-68
2022/06/20 00:53:12;;;;;;;10.65;4.55;;;15.60;99.90;;;;;;5013110;28;20037;-68
2022/06/20 00:56:15;;;;;;;11.18;3.88;;;15.80;99.90;;;;;;5016306;28;20048;-68
2022/06/20 00:59:05;;;;;;;7.63;3.30;;;15.90;99.90;;;;;;5043379;28;20048;-68
2022/06/20 01:01:37;;;;;;;11.45;4.07;;;16.10;99.90;;;;;;5028529;28;20120;-68
2022/06/20 01:04:21;;;;;;;12.23;4.25;;;16.20;99.90;;;;;;5041871;28;20021;-68
2022/06/20 01:06:57;;;;;;;17.27;4.67;;;16.40;99.90;;;;;;5025463;28;20025;-68
2022/06/20 01:09:31;;;;;;;10.43;3.67;;;16.50;99.90;;;;;;5032555;28;20026;-68
2022/06/20 01:12:03;;;;;;;15.90;3.42;;;16.50;99.90;;;;;;5017111;28;20026;-67
2022/06/20 01:14:35;;;;;;;7.70;3.10;;;16.60;99.90;;;;;;5030780;28;20014;-67
2022/06/20 01:17:07;;;;;;;8.80;1.75;;;16.70;99.90;;;;;;5016001;28;20509;-68
2022/06/20 01:19:45;;;;;;;7.80;1.63;;;16.70;99.90;;;;;;5018441;28;20517;-68
2022/06/20 01:22:38;;;;;;;5.63;2.10;;;16.70;99.90;;;;;;5012638;28;20066;-68
2022/06/20 01:25:09;;;;;;;9.68;2.13;;;16.80;99.90;;;;;;5018440;28;20067;-68
2022/06/20 01:27:47;;;;;;;8.27;1.10;;;17.10;99.90;;;;;;5039158;28;20029;-68
2022/06/20 01:30:15;;;;;;;7.45;1.73;;;17.40;99.90;;;;;;5045068;28;20025;-68
2022/06/20 01:32:44;;;;;;;6.13;1.17;;;17.20;99.90;;;;;;5032179;28;20120;-68
2022/06/20 01:37:23;;;;;;;7.57;1.50;;;17.30;99.90;;;;;;5033858;28;20046;-67
2022/06/20 01:38:08;;;;;;;6.45;1.15;;;17.50;99.90;;;;;;5015713;28;20047;-68
2022/06/20 01:40:36;;;;;;;7.53;1.80;;;17.30;99.90;;;;;;5026507;28;20493;-68
2022/06/20 01:43:03;;;;;;;11.52;2.03;;;17.30;99.90;;;;;;5011155;28;20034;-67
2022/06/20 01:48:23;;;;;;;4.72;1.10;;;17.20;99.90;;;;;;5031576;28;20524;-67
2022/06/20 01:50:50;;;;;;;8.93;1.80;;;16.90;99.90;;;;;;5031419;28;20037;-67
2022/06/20 01:53:21;;;;;;;12.80;2.35;;;16.80;99.90;;;;;;5019065;28;20048;-67
2022/06/20 01:55:53;;;;;;;7.43;1.50;;;16.90;99.90;;;;;;5039420;28;20046;-68
2022/06/20 01:59:00;;;;;;;7.28;1.25;;;16.90;99.90;;;;;;5027726;28;20033;-68
2022/06/20 02:01:31;;;;;;;9.68;1.52;;;16.60;99.90;;;;;;5028865;28;20091;-68
2022/06/20 02:03:58;;;;;;;8.35;1.52;;;16.40;99.90;;;;;;5031996;28;20030;-68
2022/06/20 02:06:26;;;;;;;10.88;1.25;;;16.40;99.90;;;;;;5016632;28;20033;-67
2022/06/20 02:08:56;;;;;;;6.65;1.45;;;16.30;99.90;;;;;;5015909;28;20052;-67
2022/06/20 02:11:33;;;;;;;6.20;0.85;;;16.20;99.90;;;;;;5014309;28;20033;-67
2022/06/20 02:14:08;;;;;;;6.15;1.05;;;16.20;99.90;;;;;;5016992;28;20541;-68
2022/06/20 02:16:39;;;;;;;8.32;1.17;;;16.20;99.90;;;;;;5012955;28;20057;-68
2022/06/20 02:19:10;;;;;;;9.15;1.38;;;16.10;99.90;;;;;;5025108;28;20025;-68
2022/06/20 02:21:39;;;;;;;6.03;1.80;;;16.20;99.90;;;;;;5021488;28;20021;-68
2022/06/20 02:24:14;;;;;;;13.45;1.02;;;16.30;99.90;;;;;;5027074;28;20108;-68
2022/06/20 02:26:44;;;;;;;9.75;0.90;;;16.30;99.90;;;;;;5018255;28;20028;-68
2022/06/20 02:29:22;;;;;;;11.13;1.67;;;16.20;99.90;;;;;;5026481;28;20022;-67
2022/06/20 02:32:15;;;;;;;10.15;1.73;;;16.30;99.90;;;;;;5018681;28;20042;-68
2022/06/20 02:34:44;;;;;;;10.02;1.02;;;16.30;99.90;;;;;;5027074;28;20021;-68
2022/06/20 02:37:14;;;;;;;6.55;1.88;;;16.30;99.90;;;;;;5014667;28;20054;-67
2022/06/20 02:39:44;;;;;;;11.57;2.13;;;16.40;99.90;;;;;;5020680;28;20370;-67
2022/06/20 02:42:41;;;;;;;7.22;1.42;;;16.30;99.90;;;;;;5042799;28;20025;-67
2022/06/20 02:45:11;;;;;;;7.95;1.20;;;16.10;99.90;;;;;;5015665;28;20104;-67
2022/06/20 02:47:44;;;;;;;6.57;1.00;;;15.90;99.90;;;;;;5026589;28;20057;-67
2022/06/20 02:50:16;;;;;;;5.50;0.90;;;15.70;99.90;;;;;;5024633;28;20038;-67
2022/06/20 02:52:56;;;;;;;7.35;1.27;;;15.60;99.90;;;;;;5019317;28;20037;-67
2022/06/20 02:55:25;;;;;;;7.80;1.48;;;15.60;99.90;;;;;;5023954;28;20042;-66
2022/06/20 02:57:55;;;;;;;6.05;1.13;;;15.70;99.90;;;;;;5022131;28;20075;-68
2022/06/20 03:00:59;;;;;;;10.65;1.35;;;15.60;99.90;;;;;;5028654;28;20084;-67
2022/06/20 03:03:37;;;;;;;6.50;0.90;;;15.70;99.90;;;;;;5020408;28;20049;-68
2022/06/20 03:06:19;;;;;;;4.80;0.70;;;15.80;99.90;;;;;;5032072;28;20394;-67
2022/06/20 03:08:46;;;;;;;7.20;1.30;;;15.70;99.90;;;;;;5029529;28;20037;-67
2022/06/20 03:11:13;;;;;;;4.97;1.13;;;15.70;99.90;;;;;;5021102;28;20041;-68
2022/06/20 03:13:42;;;;;;;7.47;0.90;;;15.70;99.90;;;;;;5019073;28;20033;-67
2022/06/20 03:16:10;;;;;;;9.40;2.70;;;15.70;99.90;;;;;;5017349;28;20471;-68
2022/06/20 03:18:42;;;;;;;10.52;2.03;;;15.70;99.90;;;;;;5015265;28;20117;-68
2022/06/20 03:21:10;;;;;;;7.32;1.42;;;15.70;99.90;;;;;;5046681;28;20037;-68
2022/06/20 03:23:37;;;;;;;10.55;1.38;;;15.70;99.90;;;;;;5041277;28;20040;-68
2022/06/20 03:26:11;;;;;;;11.30;1.58;;;15.70;99.90;;;;;;5025311;28;20025;-68
2022/06/20 03:28:38;;;;;;;10.90;1.30;;;15.80;99.90;;;;;;5028897;28;20032;-68
2022/06/20 03:31:06;;;;;;;8.48;1.17;;;15.90;99.90;;;;;;5036438;28;20036;-68
2022/06/20 03:33:34;;;;;;;6.05;0.68;;;15.90;99.90;;;;;;5033053;28;20071;-68
2022/06/20 03:36:16;;;;;;;8.68;1.15;;;15.90;99.90;;;;;;5022586;28;20025;-67
2022/06/20 03:38:46;;;;;;;8.20;1.30;;;15.80;99.90;;;;;;5023433;28;20478;-68
2022/06/20 03:41:17;;;;;;;9.88;1.23;;;15.90;99.90;;;;;;5020566;28;20024;-67
2022/06/20 03:44:15;;;;;;;9.05;0.82;;;16.00;99.90;;;;;;5030008;28;20108;-67
2022/06/20 03:46:53;;;;;;;7.22;0.77;;;16.00;99.90;;;;;;5014122;28;20065;-68
2022/06/20 03:49:27;;;;;;;5.57;1.42;;;16.00;99.90;;;;;;5019794;28;20044;-67
2022/06/20 03:52:50;;;;;;;7.43;1.33;;;16.00;99.90;;;;;;5032934;28;20038;-67
2022/06/20 03:55:21;;;;;;;9.80;1.52;;;16.00;99.90;;;;;;5050362;28;20521;-67
2022/06/20 03:58:05;;;;;;;9.10;1.98;;;16.00;99.90;;;;;;5014540;28;20387;-68
2022/06/20 04:00:55;;;;;;;10.07;1.58;;;16.10;99.90;;;;;;5018976;28;20030;-67
2022/06/20 04:03:43;;;;;;;15.30;1.35;;;16.20;99.90;;;;;;5013862;28;20056;-67
2022/06/20 04:06:19;;;;;;;7.65;0.77;;;16.30;99.90;;;;;;5015245;28;20709;-67
2022/06/20 04:12:02;;;;;;;11.70;1.02;;;16.20;99.90;;;;;;5013952;28;20088;-68
2022/06/20 04:14:46;;;;;;;7.72;1.55;;;16.30;99.90;;;;;;5016835;28;20033;-68
2022/06/20 04:20:29;;;;;;;13.10;1.20;;;16.30;99.90;;;;;;5016276;28;20838;-68
2022/06/20 04:22:58;;;;;;;7.72;2.42;;;16.30;99.90;;;;;;5022632;28;20117;-68
2022/06/20 04:25:38;;;;;;;7.93;1.63;;;16.30;99.90;;;;;;5016305;28;20026;-69
2022/06/20 04:28:11;;;;;;;13.75;1.23;;;16.30;99.90;;;;;;5017919;28;20025;-68
2022/06/20 04:30:43;;;;;;;9.07;1.70;;;16.30;99.90;;;;;;5014440;28;20033;-68
2022/06/20 04:33:49;;;;;;;12.82;1.50;;;16.20;99.90;;;;;;5015042;28;20095;-68
2022/06/20 04:36:22;;;;;;;8.43;1.08;;;16.20;99.90;;;;;;5011149;28;20070;-68
2022/06/20 04:39:01;;;;;;;11.30;1.80;;;16.10;99.90;;;;;;5027931;28;20033;-68
2022/06/20 04:41:38;;;;;;;5.85;0.80;;;16.00;99.90;;;;;;5014052;28;20422;-68
2022/06/20 04:44:31;;;;;;;9.10;0.85;;;16.10;99.90;;;;;;5015902;28;20575;-68
2022/06/20 04:47:17;;;;;;;9.55;1.40;;;16.00;99.90;;;;;;5020676;28;20053;-68
2022/06/20 04:49:44;;;;;;;8.15;1.63;;;16.00;99.90;;;;;;5021755;28;20017;-68
2022/06/20 04:52:15;;;;;;;7.63;1.45;;;16.00;99.90;;;;;;5021090;28;20432;-68
2022/06/20 04:54:43;;;;;;;10.18;1.17;;;16.00;99.90;;;;;;5047614;28;20596;-68
2022/06/20 04:57:13;;;;;;;8.98;1.08;;;16.00;99.90;;;;;;5028930;28;20490;-68
2022/06/20 04:59:42;;;;;;;7.78;1.45;;;16.00;99.90;;;;;;5051074;28;20112;-69
2022/06/20 05:02:22;;;;;;;13.88;2.22;;;16.00;99.90;;;;;;5016818;28;20053;-69
2022/06/20 05:04:52;;;;;;;10.32;2.05;;;16.00;99.90;;;;;;5011657;28;20014;-68
2022/06/20 05:07:29;;;;;;;8.10;1.83;;;16.00;99.90;;;;;;5026147;28;20151;-68
2022/06/20 05:10:20;;;;;;;11.95;1.00;;;16.00;99.90;;;;;;5031359;28;20561;-68
2022/06/20 05:13:33;;;;;;;6.15;1.08;;;15.90;99.90;;;;;;5034322;28;20112;-69
2022/06/20 05:16:01;;;;;;;8.77;1.25;;;16.00;99.90;;;;;;5042334;28;20041;-68
2022/06/20 05:18:42;;;;;;;4.05;0.70;;;16.10;99.90;;;;;;5019069;28;20042;-68
2022/06/20 05:21:21;;;;;;;5.53;0.60;;;16.10;99.90;;;;;;5012281;28;20062;-68
2022/06/20 05:24:00;;;;;;;10.90;0.70;;;16.10;99.90;;;;;;5012945;28;20032;-69
2022/06/20 05:26:33;;;;;;;5.90;0.88;;;16.00;99.90;;;;;;5020256;28;20113;-68
2022/06/20 05:29:06;;;;;;;6.90;1.50;;;16.00;99.90;;;;;;5013010;28;20474;-68
2022/06/20 05:31:40;;;;;;;7.03;1.00;;;15.90;99.90;;;;;;5015420;28;20096;-68
2022/06/20 05:34:20;;;;;;;7.78;1.13;;;15.80;99.90;;;;;;5012495;28;20029;-68
2022/06/20 05:37:13;;;;;;;3.45;0.68;;;15.80;99.90;;;;;;5025431;28;20101;-68
2022/06/20 05:39:58;;;;;;;6.80;0.82;;;15.70;99.90;;;;;;5033735;28;20033;-69
2022/06/20 05:42:26;;;;;;;2.80;0.47;;;15.70;99.90;;;;;;5013549;28;20030;-68
2022/06/20 05:44:53;;;;;;;3.30;0.50;;;15.70;99.90;;;;;;5030672;28;20039;-69
2022/06/20 05:47:28;;;;;;;8.45;1.73;;;15.70;99.90;;;;;;5031537;28;20493;-68
2022/06/20 05:50:36;;;;;;;6.85;0.98;;;15.70;99.90;;;;;;5022255;28;20382;-68
2022/06/20 05:53:10;;;;;;;4.97;1.05;;;15.80;99.90;;;;;;5039720;28;20179;-68
2022/06/20 05:55:49;;;;;;;6.72;0.50;;;15.80;99.90;;;;;;5026531;28;20077;-68
2022/06/20 05:58:24;;;;;;;4.95;0.57;;;15.80;99.90;;;;;;5021316;28;20048;-68
2022/06/20 06:00:54;;;;;;;4.05;1.00;;;15.70;99.90;;;;;;5020934;28;20057;-68
2022/06/20 06:03:38;;;;;;;5.18;0.63;;;15.60;99.90;;;;;;5034159;28;20037;-68
2022/06/20 06:06:20;;;;;;;5.40;0.65;;;15.60;99.90;;;;;;5036053;28;20116;-68
2022/06/20 06:09:00;;;;;;;9.43;1.15;;;15.60;99.90;;;;;;5024063;28;20044;-68
2022/06/20 06:12:05;;;;;;;4.60;0.52;;;15.60;99.90;;;;;;5019604;28;20442;-69
2022/06/20 06:14:51;;;;;;;9.25;1.15;;;15.70;99.90;;;;;;5016251;28;20496;-69
2022/06/20 06:17:48;;;;;;;7.15;1.20;;;15.70;99.90;;;;;;5015757;28;20030;-68
2022/06/20 06:20:19;;;;;;;7.22;1.55;;;15.60;99.90;;;;;;5026041;28;20026;-68
2022/06/20 06:22:51;;;;;;;8.90;1.85;;;15.70;99.90;;;;;;5033280;28;20393;-68
2022/06/20 06:25:38;;;;;;;14.40;1.70;;;15.70;99.90;;;;;;5041059;28;20083;-68
2022/06/20 06:28:27;;;;;;;6.82;1.38;;;15.60;99.90;;;;;;5014418;28;20121;-68
2022/06/20 06:31:02;;;;;;;9.02;1.00;;;15.60;99.90;;;;;;5024124;28;20036;-68
2022/06/20 06:33:47;;;;;;;13.07;1.42;;;15.70;99.90;;;;;;5029622;28;20128;-69
2022/06/20 06:36:43;;;;;;;11.55;1.75;;;15.70;99.90;;;;;;5032191;28;20021;-69
2022/06/20 06:39:15;;;;;;;14.82;2.42;;;15.60;99.90;;;;;;5022646;28;20049;-69
2022/06/20 06:41:46;;;;;;;11.48;1.40;;;15.70;99.90;;;;;;5016710;28;20024;-69
2022/06/20 06:44:36;;;;;;;9.60;2.58;;;15.70;99.90;;;;;;5019503;28;20504;-68
2022/06/20 06:47:05;;;;;;;11.57;1.42;;;15.60;99.90;;;;;;5028459;28;20021;-68
2022/06/20 06:49:43;;;;;;;8.30;0.93;;;15.50;99.90;;;;;;5039208;28;20503;-68
2022/06/20 06:52:16;;;;;;;3.72;0.57;;;15.40;99.90;;;;;;5021870;28;20032;-68
2022/06/20 06:54:46;;;;;;;5.13;1.02;;;15.20;99.90;;;;;;5022279;28;20417;-68
2022/06/20 06:57:32;;;;;;;8.73;1.15;;;15.20;99.90;;;;;;5026603;28;20065;-68
2022/06/20 07:00:05;;;;;;;4.30;1.00;;;15.20;99.90;;;;;;5020025;28;20049;-70
2022/06/20 07:02:42;;;;;;;5.45;0.88;;;15.30;99.90;;;;;;5023126;28;20430;-69
2022/06/20 07:05:45;;;;;;;6.57;0.70;;;15.20;99.90;;;;;;5023707;28;20050;-69
2022/06/20 07:08:32;;;;;;;4.25;1.08;;;15.20;99.90;;;;;;5020882;28;20054;-69
2022/06/20 07:11:12;;;;;;;8.63;2.05;;;15.10;99.90;;;;;;5015715;28;20026;-69
2022/06/20 07:13:48;;;;;;;8.48;1.40;;;15.00;99.90;;;;;;5019218;28;20061;-69
2022/06/20 07:16:38;;;;;;;11.13;1.90;;;14.90;99.90;;;;;;5033898;28;20037;-70
2022/06/20 07:19:07;;;;;;;9.55;1.35;;;14.90;99.90;;;;;;5029354;28;20152;-70
2022/06/20 07:21:36;;;;;;;7.13;1.88;;;14.80;99.90;;;;;;5015434;28;20033;-69
2022/06/20 07:24:20;;;;;;;10.88;1.55;;;14.70;99.90;;;;;;5024559;28;20430;-69
2022/06/20 07:27:22;;;;;;;12.98;1.70;;;14.60;99.90;;;;;;5020539;28;20096;-69
2022/06/20 07:30:02;;;;;;;11.50;1.80;;;14.60;99.90;;;;;;5030924;28;20033;-67
2022/06/20 07:32:46;;;;;;;12.25;1.25;;;14.50;99.90;;;;;;5038547;28;20029;-68
2022/06/20 07:35:17;;;;;;;9.40;1.45;;;14.40;99.90;;;;;;5028446;28;20056;-68
2022/06/20 07:38:04;;;;;;;16.38;1.85;;;14.30;99.90;;;;;;5033333;28;20034;-68
2022/06/20 07:40:39;;;;;;;12.63;1.30;;;14.30;99.90;;;;;;5014955;28;20033;-68
2022/06/20 07:43:31;;;;;;;15.20;1.88;;;14.20;99.90;;;;;;5014473;28;20034;-69
2022/06/20 07:46:04;;;;;;;9.30;1.20;;;14.20;99.90;;;;;;5017843;28;20069;-69
2022/06/20 07:48:40;;;;;;;5.75;1.05;;;14.10;99.90;;;;;;5017934;28;20479;-69
2022/06/20 07:51:09;;;;;;;8.85;1.55;;;14.10;99.90;;;;;;5013404;28;20037;-69
2022/06/20 07:53:52;;;;;;;9.48;1.42;;;14.10;99.90;;;;;;5024347;28;20056;-69
2022/06/20 07:56:29;;;;;;;10.73;1.60;;;14.20;99.90;;;;;;5033555;28;20379;-69
2022/06/20 07:59:06;;;;;;;10.35;2.17;;;14.40;99.90;;;;;;5022151;28;20485;-69
2022/06/20 08:01:53;;;;;;;11.15;2.10;;;14.40;99.90;;;;;;5013826;28;20057;-69
2022/06/20 08:04:30;;;;;;;7.35;1.70;;;14.40;99.90;;;;;;5024883;28;20677;-68
2022/06/20 08:07:16;;;;;;;9.70;1.65;;;14.40;99.90;;;;;;5025258;28;20140;-69
2022/06/20 08:09:59;;;;;;;10.07;1.70;;;14.40;99.90;;;;;;5027876;28;20025;-69
2022/06/20 08:12:50;;;;;;;8.35;2.40;;;14.40;99.90;;;;;;5027494;28;20026;-69
2022/06/20 08:15:26;;;;;;;9.23;1.92;;;14.40;99.90;;;;;;5015104;28;20057;-70
2022/06/20 08:17:54;;;;;;;8.98;2.17;;;14.40;99.90;;;;;;5033900;28;20025;-71
2022/06/20 08:20:26;;;;;;;12.38;2.42;;;14.30;99.90;;;;;;5029646;28;20038;-69
2022/06/20 08:23:05;;;;;;;14.27;2.33;;;14.30;99.90;;;;;;5023722;28;20022;-68
2022/06/20 08:25:40;;;;;;;9.45;1.88;;;14.30;99.90;;;;;;5049755;28;20025;-69
2022/06/20 08:28:17;;;;;;;10.20;2.45;;;14.30;99.90;;;;;;5034143;28;20378;-69
2022/06/20 08:31:05;;;;;;;8.13;2.13;;;14.30;99.90;;;;;;5042710;28;20028;-69
2022/06/20 08:33:51;;;;;;;9.27;1.83;;;14.30;99.90;;;;;;5034802;28;20087;-69
2022/06/20 08:36:35;;;;;;;17.23;2.33;;;14.30;99.90;;;;;;5020563;28;20037;-68
2022/06/20 08:39:32;;;;;;;12.88;1.67;;;14.20;99.90;;;;;;5035160;28;20021;-69
2022/06/20 08:42:36;;;;;;;12.18;1.50;;;14.30;99.90;;;;;;5038756;28;20031;-69
2022/06/20 08:45:31;;;;;;;9.80;2.28;;;14.20;99.90;;;;;;5032185;28;20035;-68
2022/06/20 08:48:39;;;;;;;12.30;3.63;;;14.20;99.90;;;;;;5023597;28;20109;-68
2022/06/20 08:51:09;;;;;;;8.32;1.85;;;14.20;99.90;;;;;;5023841;28;20025;-69
2022/06/20 08:53:42;;;;;;;14.40;2.10;;;14.20;99.90;;;;;;5027892;28;20029;-69
2022/06/20 08:56:22;;;;;;;9.75;2.15;;;14.20;99.90;;;;;;5013632;28;20100;-69
2022/06/20 08:59:13;;;;;;;9.20;2.15;;;14.20;99.90;;;;;;5025218;28;20526;-68
2022/06/20 09:02:04;;;;;;;10.63;2.30;;;14.20;99.90;;;;;;5030120;28;20038;-69
2022/06/20 09:04:50;;;;;;;7.07;1.73;;;14.20;99.90;;;;;;5013601;28;20021;-70
2022/06/20 09:07:29;;;;;;;7.63;1.63;;;14.20;99.90;;;;;;5029967;28;20033;-69
2022/06/20 09:10:14;;;;;;;7.18;1.52;;;14.20;99.90;;;;;;5032206;28;20052;-69
2022/06/20 09:13:01;;;;;;;6.78;1.83;;;14.20;99.90;;;;;;5032199;28;20041;-69
2022/06/20 09:15:45;;;;;;;7.97;1.75;;;14.20;99.90;;;;;;5029384;28;20030;-69
2022/06/20 09:18:27;;;;;;;9.63;2.20;;;14.20;99.90;;;;;;5029789;28;20075;-69
2022/06/20 09:21:33;;;;;;;10.50;2.20;;;14.20;99.90;;;;;;5015623;28;20035;-69
2022/06/20 09:24:02;;;;;;;;;;;14.20;99.90;;;;;;5027159;28;20129;-69
2022/06/20 09:26:38;;;;;;;9.45;2.40;;;14.10;99.90;;;;;;5033450;28;19953;-70
2022/06/20 09:29:08;;;;;;;8.07;1.92;;;14.10;99.90;;;;;;5026618;28;20026;-70
2022/06/20 09:31:47;;;;;;;14.07;2.45;;;14.00;99.90;;;;;;5043319;28;20017;-70
2022/06/20 09:34:51;;;;;;;9.30;3.00;;;14.00;99.90;;;;;;5029188;28;20038;-69
2022/06/20 09:37:27;;;;;;;7.72;2.72;;;14.00;99.90;;;;;;5031403;28;20049;-70
2022/06/20 09:40:19;;;;;;;9.85;3.05;;;14.00;99.90;;;;;;5019995;28;20037;-69
2022/06/20 09:43:19;;;;;;;10.57;5.45;;;13.90;99.90;;;;;;5042680;28;20032;-69
2022/06/20 09:46:23;;;;;;;9.35;4.32;;;13.90;99.90;;;;;;5027140;28;20018;-69
2022/06/20 09:49:27;;;;;;;12.25;3.28;;;13.90;99.90;;;;;;5046655;28;20065;-70
2022/06/20 09:52:38;;;;;;;11.75;3.67;;;13.80;99.90;;;;;;5040717;28;20493;-69
2022/06/20 09:55:49;;;;;;;14.02;3.00;;;13.70;99.90;;;;;;5025314;28;20052;-69
2022/06/20 09:58:45;;;;;;;9.07;3.35;;;13.60;99.90;;;;;;5052467;28;20041;-69
2022/06/20 10:01:36;;;;;;;13.02;5.85;;;13.50;99.90;;;;;;5018104;28;20026;-69
2022/06/20 10:04:21;;;;;;;13.32;6.45;;;13.50;99.90;;;;;;5027228;28;20028;-69
2022/06/20 10:07:07;;;;;;;15.15;9.00;;;13.40;99.90;;;;;;5040665;28;20469;-69
2022/06/20 10:09:50;;;;;;;16.27;10.98;;;13.30;99.90;;;;;;5054813;28;20502;-69
2022/06/20 10:12:26;;;;;;;17.85;10.40;;;13.30;99.90;;;;;;5035511;28;20068;-70
2022/06/20 10:15:13;;;;;;;18.50;9.80;;;13.30;99.90;;;;;;5035448;28;20486;-70
2022/06/20 10:18:04;;;;;;;22.20;9.13;;;13.30;99.90;;;;;;5034969;28;20034;-69
2022/06/20 10:20:44;;;;;;;15.48;6.30;;;13.20;99.90;;;;;;5042791;28;20108;-70
2022/06/20 10:23:16;;;;;;;13.98;5.28;;;13.20;99.90;;;;;;5038720;28;20021;-69
2022/06/20 10:25:57;;;;;;;12.63;3.78;;;13.20;99.90;;;;;;5033975;28;20022;-68
2022/06/20 10:29:09;;;;;;;15.50;4.10;;;13.20;99.90;;;;;;5016485;28;20026;-69
2022/06/20 10:31:43;;;;;;;13.77;3.88;;;13.20;99.90;;;;;;5033970;28;20037;-69
2022/06/20 10:34:18;;;;;;;12.10;3.22;;;13.20;99.90;;;;;;5034589;28;20037;-69
2022/06/20 10:36:57;;;;;;;8.82;3.53;;;13.20;99.90;;;;;;5021171;28;20038;-69
2022/06/20 10:39:49;;;;;;;10.88;3.33;;;13.10;99.90;;;;;;5016047;28;20061;-69
2022/06/20 10:42:54;;;;;;;12.27;4.72;;;13.10;99.90;;;;;;5015835;28;20026;-69
2022/06/20 10:45:51;;;;;;;8.38;3.72;;;13.00;99.90;;;;;;5021800;28;20049;-69
2022/06/20 10:48:31;;;;;;;14.00;3.47;;;13.00;99.90;;;;;;5027723;28;20029;-68
2022/06/20 10:51:18;;;;;;;8.45;3.67;;;13.10;99.90;;;;;;5030778;28;20022;-68
2022/06/20 10:54:13;;;;;;;14.18;3.83;;;13.20;99.90;;;;;;5035204;28;20033;-69
2022/06/20 10:57:13;;;;;;;11.50;3.92;;;13.10;99.90;;;;;;5021702;28;20060;-69
2022/06/20 10:59:56;;;;;;;7.45;4.32;;;13.10;99.90;;;;;;5028285;28;20052;-68
2022/06/20 11:02:27;;;;;;;12.43;4.18;;;13.10;99.90;;;;;;5015059;28;20026;-68
2022/06/20 11:05:06;;;;;;;12.23;4.30;;;13.00;99.90;;;;;;5023462;28;20025;-68
2022/06/20 11:07:38;;;;;;;14.38;3.83;;;13.00;99.90;;;;;;5035005;28;20057;-68
2022/06/20 11:10:20;;;;;;;8.95;3.35;;;13.00;99.90;;;;;;5028991;28;20029;-69
2022/06/20 11:13:17;;;;;;;13.27;3.97;;;13.00;99.90;;;;;;5029729;28;20556;-69
2022/06/20 11:15:55;;;;;;;14.02;3.15;;;13.00;99.90;;;;;;5033950;28;20033;-69
2022/06/20 11:18:32;;;;;;;14.70;4.93;;;13.00;99.90;;;;;;5034496;28;20104;-69
2022/06/20 11:21:20;;;;;;;10.18;3.92;;;13.00;99.90;;;;;;5042362;28;20017;-69
2022/06/20 11:24:19;;;;;;;10.02;4.22;;;13.00;99.90;;;;;;5043485;28;20052;-69
2022/06/20 11:27:17;;;;;;;11.75;3.72;;;12.90;99.90;;;;;;5034672;28;20036;-69
2022/06/20 11:30:23;;;;;;;10.15;3.55;;;12.90;99.90;;;;;;5036916;28;20056;-69
2022/06/20 11:33:14;;;;;;;10.27;4.38;;;12.80;99.90;;;;;;5018766;28;20040;-69
2022/06/20 11:36:10;;;;;;;12.25;4.15;;;12.80;99.90;;;;;;5026759;28;20026;-70
2022/06/20 11:38:45;;;;;;;15.65;4.00;;;12.80;99.90;;;;;;5026746;28;20044;-70
2022/06/20 11:41:22;;;;;;;13.13;3.67;;;12.80;99.90;;;;;;5036287;28;20160;-69
2022/06/20 11:44:18;;;;;;;8.00;3.55;;;12.80;99.90;;;;;;5021410;28;20025;-70
2022/06/20 11:47:13;;;;;;;11.13;4.47;;;12.80;99.90;;;;;;5025328;28;20045;-69
2022/06/20 11:49:49;;;;;;;;;;;12.70;99.90;;;;;;5033607;28;20021;-69
2022/06/20 11:52:30;;;;;;;13.38;4.60;;;12.70;99.90;;;;;;5022752;28;19913;-69
2022/06/20 11:55:29;;;;;;;10.82;4.50;;;12.70;99.90;;;;;;5015619;28;20053;-69
2022/06/20 11:58:09;;;;;;;13.70;4.65;;;12.70;99.90;;;;;;5027208;28;20573;-69
2022/06/20 12:01:00;;;;;;;14.45;5.20;;;12.60;99.90;;;;;;5020851;28;20022;-69
2022/06/20 12:03:37;;;;;;;9.18;3.63;;;12.60;99.90;;;;;;5026313;28;20036;-70
2022/06/20 12:06:15;;;;;;;16.38;3.95;;;12.60;99.90;;;;;;5023279;28;20029;-70
2022/06/20 12:08:43;;;;;;;10.20;4.18;;;12.50;99.90;;;;;;5023105;28;20064;-69
2022/06/20 12:11:16;;;;;;;10.23;4.07;;;12.50;99.90;;;;;;5023195;28;20394;-70
2022/06/20 12:14:11;;;;;;;9.13;4.15;;;12.40;99.90;;;;;;5019752;28;20042;-70
2022/06/20 12:16:47;;;;;;;15.68;5.15;;;12.40;99.90;;;;;;5030722;28;20079;-70
2022/06/20 12:25:53;;;;;;;14.95;4.72;;;12.50;99.90;;;;;;5039727;28;20063;-69
2022/06/20 12:28:37;;;;;;;17.88;5.68;;;12.40;99.90;;;;;;5030887;28;20540;-68
2022/06/20 12:31:13;;;;;;;17.42;5.75;;;12.40;99.90;;;;;;5026587;28;20028;-68
2022/06/20 12:33:53;;;;;;;10.77;5.53;;;12.40;99.90;;;;;;5018991;28;20038;-69
2022/06/20 12:36:23;;;;;;;14.50;4.90;;;12.40;99.90;;;;;;5025717;28;20021;-68
2022/06/20 12:39:17;;;;;;;19.42;6.65;;;12.30;99.90;;;;;;5021162;28;20021;-68
2022/06/20 12:41:49;;;;;;;12.38;7.57;;;12.30;99.90;;;;;;5023366;28;20033;-69
2022/06/20 12:45:07;;;;;;;13.50;6.57;;;12.30;99.90;;;;;;5036206;28;20029;-68
2022/06/20 12:48:02;;;;;;;20.00;6.63;;;12.30;99.90;;;;;;5027513;28;20033;-68
2022/06/20 12:50:47;;;;;;;10.98;5.88;;;12.20;99.90;;;;;;5020444;28;20030;-70
2022/06/20 12:53:27;;;;;;;14.65;6.88;;;12.20;99.90;;;;;;5022040;28;20054;-70
2022/06/20 12:56:30;;;;;;;10.57;6.05;;;12.20;99.90;;;;;;5022933;28;20528;-69
2022/06/20 12:59:36;;;;;;;19.13;7.53;;;12.10;99.90;;;;;;5023543;28;20936;-69
2022/06/20 13:02:35;;;;;;;17.83;7.30;;;12.10;99.90;;;;;;5036244;28;20558;-69
2022/06/20 13:05:26;;;;;;;18.75;7.45;;;12.10;99.90;;;;;;5027017;28;20017;-69
2022/06/20 13:08:23;;;;;;;18.25;6.72;;;12.10;99.90;;;;;;5035443;28;20087;-69
2022/06/20 13:11:19;;;;;;;17.40;8.13;;;12.10;99.90;;;;;;5026203;28;20068;-68
2022/06/20 13:14:08;;;;;;;23.98;8.30;;;12.10;99.90;;;;;;5028273;28;20048;-69
2022/06/20 13:17:17;;;;;;;18.25;7.85;;;12.10;99.90;;;;;;5032913;28;20574;-70
2022/06/20 13:20:04;;;;;;;17.02;7.82;;;12.00;99.90;;;;;;5035980;28;20048;-68
2022/06/20 13:22:48;;;;;;;18.27;7.85;;;11.90;99.90;;;;;;5030161;28;20155;-68
2022/06/20 13:25:28;;;;;;;16.25;7.47;;;11.90;99.90;;;;;;5026159;28;20036;-69
2022/06/20 13:28:14;;;;;;;20.80;7.60;;;11.90;99.90;;;;;;5023569;28;20104;-70
2022/06/20 13:31:09;;;;;;;21.08;8.13;;;11.80;99.90;;;;;;5019520;28;20057;-69
2022/06/20 13:34:05;;;;;;;15.60;7.53;;;11.70;99.90;;;;;;5029788;28;20026;-69
2022/06/20 13:36:55;;;;;;;12.85;6.95;;;11.80;99.90;;;;;;5029942;28;20041;-70
2022/06/20 13:39:38;;;;;;;16.55;7.20;;;11.80;99.90;;;;;;5026504;28;20080;-69
2022/06/20 13:42:23;;;;;;;24.58;7.82;;;11.70;99.90;;;;;;5015246;28;20471;-70
2022/06/20 13:45:17;;;;;;;15.43;7.65;;;11.70;99.90;;;;;;5033905;28;20021;-69
2022/06/20 13:47:47;;;;;;;17.60;8.10;;;11.70;99.90;;;;;;5034391;28;20037;-69
2022/06/20 13:50:44;;;;;;;14.18;7.57;;;11.70;99.90;;;;;;5030713;28;20357;-70
2022/06/20 13:53:29;;;;;;;18.60;7.25;;;11.70;99.90;;;;;;5028500;28;20041;-70
2022/06/20 13:56:25;;;;;;;12.25;6.50;;;11.70;99.90;;;;;;5025185;28;20059;-70
2022/06/20 13:59:20;;;;;;;13.55;7.28;;;11.70;99.90;;;;;;5021630;28;20030;-69
2022/06/20 14:01:58;;;;;;;24.83;9.02;;;11.70;99.90;;;;;;5022794;28;20429;-69
2022/06/20 14:04:29;;;;;;;16.58;7.32;;;11.60;99.90;;;;;;5021885;28;20505;-69
2022/06/20 14:07:06;;;;;;;17.33;7.18;;;11.60;99.90;;;;;;5034516;28;20091;-69
2022/06/20 14:09:46;;;;;;;19.35;7.20;;;11.60;99.90;;;;;;5033949;28;20021;-69
2022/06/20 14:12:30;;;;;;;17.50;7.45;;;11.60;99.90;;;;;;5024253;28;20042;-70